Terminal Aerodrome Forecast
Issued by NWS

Home | Current Version | Previous Version | Graphics & Text | Print | Product List | Glossary On
Versions: 1 2 3 4 5 6 7 8 9 10 11 12 13 14 15 16 17
000
FTUS43 KGRB 281136
TAFATW
TAF
KATW 281136Z 2812/2912 36008KT P6SM SCT018 BKN035
      TEMPO 2812/2815 -SHRA BKN018
     FM281500 03013G19KT P6SM BKN020 BKN035
      TEMPO 2815/2818 -SHRA
     FM281800 03015G22KT P6SM OVC024
     FM282000 03013G19KT P6SM BKN040
     FM290000 01010KT P6SM SCT030=

USA.gov is the U.S. government's official web portal to all federal, state and local government web resources and services.